Time,TemperatureF,DewpointF,PressureIn,WindDirection,WindDirectionDegrees,WindSpeedMPH,WindSpeedGustMPH,Humidity,HourlyPrecipIn,Conditions,Clouds,dailyrainin,SolarRadiationWatts/m^2,SoftwareType,DateUTC
2013-07-05 00:02:00,62.0,51.0,-100.00,WSW,237,6.0,14.0,67,0.00,,,0.00,1.000000,,2013-07-05 07:02:00,
2013-07-05 00:34:00,60.0,50.0,-100.00,SW,227,6.0,15.0,70,0.00,,,0.00,1.000000,,2013-07-05 07:34:00,
2013-07-05 00:43:00,60.0,50.0,-100.00,SW,227,6.0,15.0,70,0.00,,,0.00,1.000000,,2013-07-05 07:43:00,
2013-07-05 00:53:00,60.0,50.0,-100.00,SW,227,6.0,15.0,70,0.00,,,0.00,1.000000,,2013-07-05 07:53:00,
2013-07-05 01:02:00,60.0,50.0,-100.00,SW,227,6.0,15.0,70,0.00,,,0.00,1.000000,,2013-07-05 08:02:00,
2013-07-05 01:33:00,60.0,51.0,-100.00,WSW,239,6.0,14.0,71,0.00,,,0.00,1.000000,,2013-07-05 08:33:00,
2013-07-05 01:44:00,60.0,51.0,-100.00,WSW,239,6.0,14.0,71,0.00,,,0.00,1.000000,,2013-07-05 08:44:00,
2013-07-05 02:37:00,59.0,50.0,-100.00,SW,227,6.0,14.0,73,0.00,,,0.00,1.000000,,2013-07-05 09:37:00,
2013-07-05 02:48:00,59.0,50.0,-100.00,SW,227,6.0,14.0,73,0.00,,,0.00,1.000000,,2013-07-05 09:48:00,
2013-07-05 03:03:00,59.0,50.0,-100.00,SW,227,6.0,14.0,73,0.00,,,0.00,1.000000,,2013-07-05 10:03:00,
2013-07-05 03:38:00,59.0,50.0,-100.00,WSW,243,6.0,13.0,73,0.00,,,0.00,1.000000,,2013-07-05 10:38:00,
2013-07-05 03:47:00,59.0,50.0,-100.00,WSW,243,6.0,13.0,73,0.00,,,0.00,1.000000,,2013-07-05 10:47:00,
2013-07-05 03:57:00,59.0,50.0,-100.00,WSW,243,6.0,13.0,73,0.00,,,0.00,1.000000,,2013-07-05 10:57:00,
2013-07-05 04:38:00,59.0,50.0,-100.00,SW,236,6.0,13.0,72,0.00,,,0.00,1.000000,,2013-07-05 11:38:00,
2013-07-05 04:49:00,59.0,50.0,-100.00,SW,236,6.0,13.0,72,0.00,,,0.00,1.000000,,2013-07-05 11:49:00,
2013-07-05 05:37:00,58.0,49.0,-100.00,West,264,7.0,16.0,72,0.00,,,0.00,1.000000,,2013-07-05 12:37:00,
2013-07-05 05:50:00,58.0,49.0,-100.00,West,264,7.0,16.0,72,0.00,,,0.00,1.000000,,2013-07-05 12:50:00,
2013-07-05 05:58:00,58.0,49.0,-100.00,West,264,7.0,16.0,72,0.00,,,0.00,1.000000,,2013-07-05 12:58:00,
2013-07-05 06:39:00,58.0,48.0,-100.00,West,263,6.0,15.0,70,0.00,,,0.00,10.000000,,2013-07-05 13:39:00,
2013-07-05 06:49:00,58.0,48.0,-100.00,West,263,6.0,15.0,70,0.00,,,0.00,10.000000,,2013-07-05 13:49:00,
2013-07-05 06:57:00,58.0,48.0,-100.00,West,263,6.0,15.0,70,0.00,,,0.00,10.000000,,2013-07-05 13:57:00,
2013-07-05 07:04:00,58.0,48.0,-100.00,West,263,6.0,15.0,70,0.00,,,0.00,10.000000,,2013-07-05 14:04:00,
2013-07-05 07:39:00,60.0,48.0,-100.00,West,266,8.0,15.0,64,0.00,,,0.00,102.000000,,2013-07-05 14:39:00,
2013-07-05 07:47:00,60.0,48.0,-100.00,West,266,8.0,15.0,64,0.00,,,0.00,102.000000,,2013-07-05 14:47:00,
2013-07-05 07:56:00,60.0,48.0,-100.00,West,266,8.0,15.0,64,0.00,,,0.00,102.000000,,2013-07-05 14:56:00,
2013-07-05 08:03:00,60.0,48.0,-100.00,West,266,8.0,15.0,64,0.00,,,0.00,102.000000,,2013-07-05 15:03:00,
2013-07-05 08:34:00,62.0,48.0,-100.00,West,264,7.0,16.0,60,0.00,,,0.00,231.000000,,2013-07-05 15:34:00,
2013-07-05 08:43:00,62.0,48.0,-100.00,West,264,7.0,16.0,60,0.00,,,0.00,231.000000,,2013-07-05 15:43:00,
2013-07-05 09:01:00,62.0,48.0,-100.00,West,264,7.0,16.0,60,0.00,,,0.00,231.000000,,2013-07-05 16:01:00,
2013-07-05 09:33:00,64.0,51.0,-100.00,West,261,6.0,15.0,63,0.00,,,0.00,387.000000,,2013-07-05 16:33:00,
2013-07-05 09:44:00,64.0,51.0,-100.00,West,261,6.0,15.0,63,0.00,,,0.00,387.000000,,2013-07-05 16:44:00,
2013-07-05 09:53:00,64.0,51.0,-100.00,West,261,6.0,15.0,63,0.00,,,0.00,387.000000,,2013-07-05 16:53:00,
2013-07-05 10:01:00,64.0,51.0,-100.00,West,261,6.0,15.0,63,0.00,,,0.00,387.000000,,2013-07-05 17:01:00,
2013-07-05 10:33:00,65.0,48.0,-100.00,West,269,8.0,17.0,55,0.00,,,0.00,538.000000,,2013-07-05 17:33:00,
2013-07-05 10:43:00,65.0,48.0,-100.00,West,269,8.0,17.0,55,0.00,,,0.00,538.000000,,2013-07-05 17:43:00,
2013-07-05 10:53:00,65.0,48.0,-100.00,West,269,8.0,17.0,55,0.00,,,0.00,538.000000,,2013-07-05 17:53:00,
2013-07-05 11:01:00,65.0,48.0,-100.00,West,269,8.0,17.0,55,0.00,,,0.00,538.000000,,2013-07-05 18:01:00,
2013-07-05 11:33:00,67.0,50.0,-100.00,WSW,255,7.0,16.0,55,0.00,,,0.00,767.000000,,2013-07-05 18:33:00,
2013-07-05 11:43:00,67.0,50.0,-100.00,WSW,255,7.0,16.0,55,0.00,,,0.00,767.000000,,2013-07-05 18:43:00,
2013-07-05 11:53:00,67.0,50.0,-100.00,WSW,255,7.0,16.0,55,0.00,,,0.00,767.000000,,2013-07-05 18:53:00,
2013-07-05 12:01:00,67.0,50.0,-100.00,WSW,255,7.0,16.0,55,0.00,,,0.00,767.000000,,2013-07-05 19:01:00,
2013-07-05 12:34:00,68.0,50.0,-100.00,WSW,249,7.0,17.0,52,0.00,,,0.00,876.000000,,2013-07-05 19:34:00,
2013-07-05 12:43:00,68.0,50.0,-100.00,WSW,249,7.0,17.0,52,0.00,,,0.00,876.000000,,2013-07-05 19:43:00,
2013-07-05 12:53:00,68.0,50.0,-100.00,WSW,249,7.0,17.0,52,0.00,,,0.00,876.000000,,2013-07-05 19:53:00,
2013-07-05 13:01:00,68.0,50.0,-100.00,WSW,249,7.0,17.0,52,0.00,,,0.00,876.000000,,2013-07-05 20:01:00,
2013-07-05 13:43:00,69.0,50.0,-100.00,West,264,8.0,15.0,50,0.00,,,0.00,921.000000,,2013-07-05 20:43:00,
2013-07-05 13:53:00,69.0,50.0,-100.00,West,264,8.0,15.0,50,0.00,,,0.00,921.000000,,2013-07-05 20:53:00,
2013-07-05 14:01:00,69.0,50.0,-100.00,West,264,8.0,15.0,50,0.00,,,0.00,921.000000,,2013-07-05 21:01:00,
2013-07-05 14:34:00,69.0,50.0,-100.00,WSW,256,7.0,16.0,51,0.00,,,0.00,766.000000,,2013-07-05 21:34:00,
2013-07-05 14:43:00,69.0,50.0,-100.00,WSW,256,7.0,16.0,51,0.00,,,0.00,766.000000,,2013-07-05 21:43:00,
2013-07-05 14:53:00,69.0,50.0,-100.00,WSW,256,7.0,16.0,51,0.00,,,0.00,766.000000,,2013-07-05 21:53:00,
2013-07-05 15:01:00,69.0,50.0,-100.00,WSW,256,7.0,16.0,51,0.00,,,0.00,766.000000,,2013-07-05 22:01:00,
2013-07-05 15:34:00,71.0,51.0,-100.00,WSW,252,9.0,17.0,50,0.00,,,0.00,843.000000,,2013-07-05 22:34:00,
2013-07-05 15:43:00,71.0,51.0,-100.00,WSW,252,9.0,17.0,50,0.00,,,0.00,843.000000,,2013-07-05 22:43:00,
2013-07-05 15:53:00,71.0,51.0,-100.00,WSW,252,9.0,17.0,50,0.00,,,0.00,843.000000,,2013-07-05 22:53:00,
2013-07-05 16:02:00,71.0,51.0,-100.00,WSW,252,9.0,17.0,50,0.00,,,0.00,843.000000,,2013-07-05 23:02:00,
2013-07-05 16:32:00,72.0,53.0,-100.00,WSW,253,7.0,18.0,51,0.00,,,0.00,750.000000,,2013-07-05 23:32:00,
2013-07-05 16:43:00,72.0,53.0,-100.00,WSW,253,7.0,18.0,51,0.00,,,0.00,750.000000,,2013-07-05 23:43:00,
2013-07-05 16:53:00,72.0,53.0,-100.00,WSW,253,7.0,18.0,51,0.00,,,0.00,750.000000,,2013-07-05 23:53:00,
2013-07-05 17:01:00,72.0,53.0,-100.00,WSW,253,7.0,18.0,51,0.00,,,0.00,750.000000,,2013-07-06 00:01:00,
2013-07-05 17:42:00,73.0,52.0,-100.00,SW,234,8.0,14.0,48,0.00,,,0.00,611.000000,,2013-07-06 00:42:00,
2013-07-05 17:53:00,73.0,52.0,-100.00,SW,234,8.0,14.0,48,0.00,,,0.00,611.000000,,2013-07-06 00:53:00,
2013-07-05 18:01:00,73.0,52.0,-100.00,SW,234,8.0,14.0,48,0.00,,,0.00,611.000000,,2013-07-06 01:01:00,
2013-07-05 18:33:00,73.0,53.0,-100.00,WSW,253,6.0,15.0,49,0.00,,,0.00,460.000000,,2013-07-06 01:33:00,
2013-07-05 18:43:00,73.0,53.0,-100.00,WSW,253,6.0,15.0,49,0.00,,,0.00,460.000000,,2013-07-06 01:43:00,
2013-07-05 18:53:00,73.0,53.0,-100.00,WSW,253,6.0,15.0,49,0.00,,,0.00,460.000000,,2013-07-06 01:53:00,
2013-07-05 19:02:00,73.0,53.0,-100.00,WSW,253,6.0,15.0,49,0.00,,,0.00,460.000000,,2013-07-06 02:02:00,
2013-07-05 19:34:00,72.0,52.0,-100.00,West,275,6.0,14.0,49,0.00,,,0.00,291.000000,,2013-07-06 02:34:00,
2013-07-05 19:43:00,72.0,52.0,-100.00,West,275,6.0,14.0,49,0.00,,,0.00,291.000000,,2013-07-06 02:43:00,
2013-07-05 19:53:00,72.0,52.0,-100.00,West,275,6.0,14.0,49,0.00,,,0.00,291.000000,,2013-07-06 02:53:00,
2013-07-05 20:02:00,72.0,52.0,-100.00,West,275,6.0,14.0,49,0.00,,,0.00,291.000000,,2013-07-06 03:02:00,
2013-07-05 20:34:00,69.0,53.0,-100.00,WSW,251,5.0,11.0,57,0.00,,,0.00,111.000000,,2013-07-06 03:34:00,
2013-07-05 20:43:00,69.0,53.0,-100.00,WSW,251,5.0,11.0,57,0.00,,,0.00,111.000000,,2013-07-06 03:43:00,
2013-07-05 20:53:00,69.0,53.0,-100.00,WSW,251,5.0,11.0,57,0.00,,,0.00,111.000000,,2013-07-06 03:53:00,
2013-07-05 21:01:00,69.0,53.0,-100.00,WSW,251,5.0,11.0,57,0.00,,,0.00,111.000000,,2013-07-06 04:01:00,
2013-07-05 21:33:00,64.0,54.0,-100.00,SSW,192,3.0,9.0,69,0.00,,,0.00,11.000000,,2013-07-06 04:33:00,
2013-07-05 21:43:00,64.0,54.0,-100.00,SSW,192,3.0,9.0,69,0.00,,,0.00,11.000000,,2013-07-06 04:43:00,
2013-07-05 21:53:00,64.0,54.0,-100.00,SSW,192,3.0,9.0,69,0.00,,,0.00,11.000000,,2013-07-06 04:53:00,
2013-07-05 22:02:00,64.0,54.0,-100.00,SSW,192,3.0,9.0,69,0.00,,,0.00,11.000000,,2013-07-06 05:02:00,
2013-07-05 22:34:00,62.0,52.0,-100.00,SSW,193,3.0,8.0,71,0.00,,,0.00,1.000000,,2013-07-06 05:34:00,
2013-07-05 22:43:00,62.0,52.0,-100.00,SSW,193,3.0,8.0,71,0.00,,,0.00,1.000000,,2013-07-06 05:43:00,
2013-07-05 22:53:00,62.0,52.0,-100.00,SSW,193,3.0,8.0,71,0.00,,,0.00,1.000000,,2013-07-06 05:53:00,
2013-07-05 23:01:00,62.0,52.0,-100.00,SSW,193,3.0,8.0,71,0.00,,,0.00,1.000000,,2013-07-06 06:01:00,
2013-07-05 23:34:00,62.0,52.0,-100.00,WSW,251,3.0,9.0,71,0.00,,,0.00,1.000000,,2013-07-06 06:34:00,
2013-07-05 23:43:00,62.0,52.0,-100.00,WSW,251,3.0,9.0,71,0.00,,,0.00,1.000000,,2013-07-06 06:43:00,
2013-07-05 23:53:00,62.0,52.0,-100.00,WSW,251,3.0,9.0,71,0.00,,,0.00,1.000000,,2013-07-06 06:53:00,